EZY16YV EGAC-EGCC
Flight info
| Callsign | EZY16YV |
|---|---|
| Flight time | 0h 35m |
| Altitude | 23000 |
| Route | DUFFY L15 PEPOD Q38 MAKUX |
| Aircraft | A320/M-SDE2E3FGHIJ1RWXYZ/LB1 |
Departure
| Time | 2026-05-05 10:14 |
|---|---|
| Airport | George Best Belfast City Airport (EGAC) |
Arrival
| Time | 2026-05-05 10:49 |
|---|---|
| Airport | Manchester Airport (EGCC) |
| Time | Latitude | Longitude | Altitude | Speed | Heading |
|---|---|---|---|---|---|
| 2026-05-05 09:54 | 54.61433 | -5.87219 | 23 ft | 0 kts | 124° |
| 2026-05-05 10:07 | 54.61444 | -5.87245 | 25 ft | 4 kts | 132° |
| 2026-05-05 10:07 | 54.61464 | -5.87274 | 24 ft | 4 kts | 159° |
| 2026-05-05 10:07 | 54.61486 | -5.87277 | 23 ft | 3 kts | 212° |
| 2026-05-05 10:08 | 54.61492 | -5.87270 | 23 ft | 0 kts | 214° |
| 2026-05-05 10:10 | 54.61490 | -5.87273 | 24 ft | 1 kts | 214° |
| 2026-05-05 10:10 | 54.61474 | -5.87292 | 22 ft | 6 kts | 214° |
| 2026-05-05 10:10 | 54.61426 | -5.87351 | 21 ft | 9 kts | 220° |
| 2026-05-05 10:11 | 54.61389 | -5.87433 | 21 ft | 9 kts | 227° |
| 2026-05-05 10:11 | 54.61338 | -5.87499 | 20 ft | 10 kts | 215° |
| 2026-05-05 10:11 | 54.61275 | -5.87575 | 18 ft | 12 kts | 214° |
| 2026-05-05 10:11 | 54.61207 | -5.87656 | 16 ft | 12 kts | 214° |
| 2026-05-05 10:12 | 54.61139 | -5.87737 | 17 ft | 13 kts | 215° |
| 2026-05-05 10:12 | 54.61083 | -5.87848 | 20 ft | 12 kts | 256° |
| 2026-05-05 10:12 | 54.61113 | -5.87972 | 18 ft | 11 kts | 305° |
| 2026-05-05 10:12 | 54.61167 | -5.88019 | 18 ft | 9 kts | 13° |
| 2026-05-05 10:13 | 54.61198 | -5.87986 | 19 ft | 0 kts | 35° |
| 2026-05-05 10:13 | 54.61204 | -5.87978 | 18 ft | 6 kts | 35° |
| 2026-05-05 10:13 | 54.61428 | -5.87708 | 12 ft | 78 kts | 35° |
| 2026-05-05 10:13 | 54.62041 | -5.86977 | 27 ft | 134 kts | 34° |
| 2026-05-05 10:14 | 54.62841 | -5.86006 | 521 ft | 146 kts | 34° |
| 2026-05-05 10:14 | 54.63689 | -5.84969 | 1177 ft | 152 kts | 33° |
| 2026-05-05 10:14 | 54.64593 | -5.83843 | 1568 ft | 169 kts | 32° |
| 2026-05-05 10:14 | 54.65395 | -5.82180 | 1851 ft | 201 kts | 67° |
| 2026-05-05 10:15 | 54.65294 | -5.79637 | 2232 ft | 233 kts | 112° |
| 2026-05-05 10:15 | 54.64122 | -5.77491 | 2626 ft | 265 kts | 151° |
| 2026-05-05 10:15 | 54.62287 | -5.76908 | 3358 ft | 276 kts | 189° |
| 2026-05-05 10:15 | 54.60477 | -5.77937 | 4339 ft | 274 kts | 209° |
| 2026-05-05 10:16 | 54.58807 | -5.79534 | 5321 ft | 274 kts | 214° |
| 2026-05-05 10:16 | 54.57157 | -5.81222 | 6247 ft | 278 kts | 212° |
| 2026-05-05 10:16 | 54.55448 | -5.82847 | 7112 ft | 282 kts | 209° |
| 2026-05-05 10:16 | 54.53629 | -5.84176 | 7936 ft | 289 kts | 196° |
| 2026-05-05 10:17 | 54.51640 | -5.84505 | 8767 ft | 295 kts | 176° |
| 2026-05-05 10:17 | 54.49630 | -5.83644 | 9550 ft | 301 kts | 155° |
| 2026-05-05 10:17 | 54.47839 | -5.81750 | 10326 ft | 306 kts | 143° |
| 2026-05-05 10:17 | 54.46049 | -5.79533 | 10625 ft | 329 kts | 144° |
| 2026-05-05 10:18 | 54.44127 | -5.77198 | 11064 ft | 344 kts | 145° |
| 2026-05-05 10:18 | 54.42150 | -5.74821 | 11758 ft | 349 kts | 145° |
| 2026-05-05 10:18 | 54.40145 | -5.72426 | 12501 ft | 353 kts | 146° |
| 2026-05-05 10:18 | 54.38119 | -5.70011 | 13251 ft | 357 kts | 146° |
| 2026-05-05 10:19 | 54.36068 | -5.67573 | 13978 ft | 360 kts | 146° |
| 2026-05-05 10:19 | 54.34006 | -5.65124 | 14686 ft | 362 kts | 146° |
| 2026-05-05 10:19 | 54.31928 | -5.62654 | 15334 ft | 364 kts | 146° |
| 2026-05-05 10:19 | 54.29838 | -5.60167 | 15985 ft | 367 kts | 146° |
| 2026-05-05 10:20 | 54.27786 | -5.57524 | 16626 ft | 371 kts | 139° |
| 2026-05-05 10:20 | 54.26013 | -5.54309 | 17266 ft | 375 kts | 128° |
| 2026-05-05 10:20 | 54.24479 | -5.50676 | 17913 ft | 378 kts | 126° |
| 2026-05-05 10:20 | 54.22939 | -5.46998 | 18491 ft | 382 kts | 127° |
| 2026-05-05 10:21 | 54.21381 | -5.43300 | 19022 ft | 385 kts | 127° |
| 2026-05-05 10:21 | 54.19823 | -5.39619 | 19536 ft | 388 kts | 127° |
| 2026-05-05 10:21 | 54.18211 | -5.35825 | 20094 ft | 391 kts | 127° |
| 2026-05-05 10:21 | 54.16607 | -5.32055 | 20617 ft | 394 kts | 127° |
| 2026-05-05 10:22 | 54.14995 | -5.28269 | 21131 ft | 397 kts | 128° |
| 2026-05-05 10:22 | 54.13385 | -5.24493 | 21634 ft | 400 kts | 128° |
| 2026-05-05 10:22 | 54.11749 | -5.20644 | 22169 ft | 402 kts | 128° |
| 2026-05-05 10:22 | 54.10105 | -5.16781 | 22661 ft | 404 kts | 128° |
| 2026-05-05 10:23 | 54.08446 | -5.12892 | 23023 ft | 407 kts | 128° |
| 2026-05-05 10:23 | 54.06785 | -5.09003 | 23082 ft | 397 kts | 128° |
| 2026-05-05 10:23 | 54.05182 | -5.05258 | 23079 ft | 388 kts | 128° |
| 2026-05-05 10:23 | 54.03592 | -5.01562 | 23084 ft | 386 kts | 128° |
| 2026-05-05 10:24 | 54.02006 | -4.97889 | 23082 ft | 386 kts | 128° |
| 2026-05-05 10:24 | 54.00416 | -4.94208 | 23085 ft | 385 kts | 128° |
| 2026-05-05 10:24 | 53.98832 | -4.90541 | 23075 ft | 385 kts | 128° |
| 2026-05-05 10:24 | 53.97244 | -4.86867 | 23083 ft | 385 kts | 128° |
| 2026-05-05 10:25 | 53.95677 | -4.83249 | 23095 ft | 385 kts | 128° |
| 2026-05-05 10:25 | 53.94089 | -4.79586 | 23079 ft | 385 kts | 128° |
| 2026-05-05 10:25 | 53.92499 | -4.75924 | 23087 ft | 385 kts | 128° |
| 2026-05-05 10:25 | 53.90908 | -4.72262 | 23082 ft | 385 kts | 128° |
| 2026-05-05 10:26 | 53.89321 | -4.68614 | 23084 ft | 385 kts | 128° |
| 2026-05-05 10:26 | 53.87733 | -4.64974 | 23093 ft | 384 kts | 128° |
| 2026-05-05 10:26 | 53.86143 | -4.61339 | 23097 ft | 383 kts | 128° |
| 2026-05-05 10:26 | 53.84553 | -4.57716 | 23096 ft | 383 kts | 128° |
| 2026-05-05 10:27 | 53.82968 | -4.54108 | 23095 ft | 382 kts | 128° |
| 2026-05-05 10:27 | 53.81385 | -4.50502 | 23094 ft | 382 kts | 128° |
| 2026-05-05 10:27 | 53.79804 | -4.46896 | 23090 ft | 381 kts | 128° |
| 2026-05-05 10:27 | 53.78226 | -4.43296 | 23090 ft | 381 kts | 128° |
| 2026-05-05 10:28 | 53.76647 | -4.39699 | 23088 ft | 381 kts | 128° |
| 2026-05-05 10:28 | 53.75062 | -4.36099 | 23083 ft | 381 kts | 128° |
| 2026-05-05 10:28 | 53.73479 | -4.32514 | 23083 ft | 381 kts | 129° |
| 2026-05-05 10:28 | 53.71893 | -4.28930 | 23082 ft | 381 kts | 129° |
| 2026-05-05 10:29 | 53.70304 | -4.25342 | 23081 ft | 381 kts | 129° |
| 2026-05-05 10:29 | 53.68719 | -4.21767 | 23053 ft | 380 kts | 129° |
| 2026-05-05 10:29 | 53.67150 | -4.18236 | 22730 ft | 373 kts | 129° |
| 2026-05-05 10:29 | 53.65603 | -4.14763 | 22264 ft | 369 kts | 128° |
| 2026-05-05 10:30 | 53.64070 | -4.11305 | 21813 ft | 366 kts | 126° |
| 2026-05-05 10:30 | 53.62827 | -4.07584 | 21387 ft | 365 kts | 114° |
| 2026-05-05 10:30 | 53.61859 | -4.03641 | 20941 ft | 362 kts | 113° |
| 2026-05-05 10:30 | 53.60903 | -3.99729 | 20503 ft | 360 kts | 114° |
| 2026-05-05 10:31 | 53.59948 | -3.95839 | 20075 ft | 359 kts | 114° |
| 2026-05-05 10:31 | 53.59006 | -3.92022 | 19650 ft | 357 kts | 114° |
| 2026-05-05 10:31 | 53.58052 | -3.88181 | 19230 ft | 355 kts | 114° |
| 2026-05-05 10:31 | 53.57103 | -3.84365 | 18807 ft | 354 kts | 114° |
| 2026-05-05 10:32 | 53.56151 | -3.80549 | 18381 ft | 352 kts | 114° |
| 2026-05-05 10:32 | 53.55205 | -3.76764 | 17925 ft | 351 kts | 114° |
| 2026-05-05 10:32 | 53.54258 | -3.72991 | 17520 ft | 348 kts | 114° |
| 2026-05-05 10:32 | 53.53321 | -3.69260 | 17109 ft | 346 kts | 114° |
| 2026-05-05 10:33 | 53.52389 | -3.65548 | 16717 ft | 343 kts | 114° |
| 2026-05-05 10:33 | 53.51466 | -3.61859 | 16329 ft | 341 kts | 113° |
| 2026-05-05 10:33 | 53.50548 | -3.58188 | 15944 ft | 340 kts | 113° |
| 2026-05-05 10:33 | 53.49633 | -3.54540 | 15560 ft | 339 kts | 113° |
| 2026-05-05 10:34 | 53.48718 | -3.50902 | 15176 ft | 338 kts | 113° |
| 2026-05-05 10:34 | 53.47803 | -3.47274 | 14795 ft | 337 kts | 113° |
| 2026-05-05 10:34 | 53.46886 | -3.43657 | 14413 ft | 336 kts | 113° |
| 2026-05-05 10:34 | 53.45973 | -3.40050 | 14034 ft | 335 kts | 113° |
| 2026-05-05 10:35 | 53.45063 | -3.36453 | 13634 ft | 335 kts | 113° |
| 2026-05-05 10:35 | 53.44156 | -3.32872 | 13245 ft | 333 kts | 113° |
| 2026-05-05 10:35 | 53.43259 | -3.29357 | 12870 ft | 330 kts | 113° |
| 2026-05-05 10:35 | 53.42344 | -3.25785 | 12497 ft | 328 kts | 113° |
| 2026-05-05 10:36 | 53.41459 | -3.22326 | 12129 ft | 326 kts | 113° |
| 2026-05-05 10:36 | 53.40579 | -3.18836 | 11757 ft | 324 kts | 110° |
| 2026-05-05 10:36 | 53.40097 | -3.15192 | 11397 ft | 320 kts | 92° |
| 2026-05-05 10:36 | 53.40270 | -3.11539 | 11225 ft | 309 kts | 75° |
| 2026-05-05 10:37 | 53.41010 | -3.08213 | 10903 ft | 302 kts | 59° |
| 2026-05-05 10:37 | 53.42051 | -3.05180 | 10336 ft | 298 kts | 57° |
| 2026-05-05 10:37 | 53.43102 | -3.02169 | 9953 ft | 299 kts | 57° |
| 2026-05-05 10:37 | 53.44148 | -2.99174 | 9575 ft | 297 kts | 58° |
| 2026-05-05 10:38 | 53.45185 | -2.96196 | 9224 ft | 294 kts | 58° |
| 2026-05-05 10:38 | 53.46206 | -2.93254 | 8870 ft | 291 kts | 58° |
| 2026-05-05 10:38 | 53.47221 | -2.90325 | 8523 ft | 288 kts | 58° |
| 2026-05-05 10:38 | 53.48219 | -2.87435 | 8182 ft | 285 kts | 57° |
| 2026-05-05 10:39 | 53.49202 | -2.84571 | 7845 ft | 282 kts | 58° |
| 2026-05-05 10:39 | 53.50176 | -2.81732 | 7516 ft | 279 kts | 57° |
| 2026-05-05 10:39 | 53.51140 | -2.78921 | 7248 ft | 273 kts | 57° |
| 2026-05-05 10:39 | 53.51823 | -2.76019 | 7111 ft | 265 kts | 79° |
| 2026-05-05 10:40 | 53.51694 | -2.72990 | 6953 ft | 259 kts | 107° |
| 2026-05-05 10:40 | 53.50785 | -2.70375 | 6821 ft | 263 kts | 134° |
| 2026-05-05 10:40 | 53.49302 | -2.68728 | 6592 ft | 260 kts | 160° |
| 2026-05-05 10:40 | 53.47558 | -2.67786 | 6334 ft | 260 kts | 163° |
| 2026-05-05 10:41 | 53.45843 | -2.66876 | 6065 ft | 263 kts | 162° |
| 2026-05-05 10:41 | 53.44099 | -2.65944 | 5813 ft | 263 kts | 162° |
| 2026-05-05 10:41 | 53.42364 | -2.65014 | 5560 ft | 259 kts | 162° |
| 2026-05-05 10:41 | 53.40647 | -2.64096 | 5335 ft | 260 kts | 162° |
| 2026-05-05 10:42 | 53.37288 | -2.62302 | 4865 ft | 247 kts | 162° |
| 2026-05-05 10:42 | 53.35665 | -2.61436 | 4634 ft | 242 kts | 162° |
| 2026-05-05 10:42 | 53.34079 | -2.60592 | 4414 ft | 237 kts | 162° |
| 2026-05-05 10:43 | 53.32520 | -2.59759 | 4195 ft | 234 kts | 162° |
| 2026-05-05 10:43 | 53.30982 | -2.58937 | 3974 ft | 230 kts | 162° |
| 2026-05-05 10:43 | 53.29464 | -2.58127 | 3787 ft | 227 kts | 162° |
| 2026-05-05 10:43 | 53.27990 | -2.57341 | 3694 ft | 218 kts | 162° |
| 2026-05-05 10:44 | 53.26589 | -2.56596 | 3627 ft | 205 kts | 162° |
| 2026-05-05 10:44 | 53.25274 | -2.55865 | 3513 ft | 193 kts | 155° |
| 2026-05-05 10:44 | 53.24269 | -2.54530 | 3404 ft | 180 kts | 123° |
| 2026-05-05 10:44 | 53.23796 | -2.52687 | 3294 ft | 167 kts | 95° |
| 2026-05-05 10:45 | 53.23853 | -2.50831 | 3166 ft | 156 kts | 68° |
| 2026-05-05 10:45 | 53.24342 | -2.49280 | 3013 ft | 149 kts | 47° |
| 2026-05-05 10:45 | 53.24999 | -2.47935 | 2835 ft | 150 kts | 47° |
| 2026-05-05 10:45 | 53.25657 | -2.46585 | 2626 ft | 151 kts | 46° |
| 2026-05-05 10:46 | 53.26315 | -2.45235 | 2429 ft | 152 kts | 47° |
| 2026-05-05 10:46 | 53.26974 | -2.43882 | 2234 ft | 148 kts | 47° |
| 2026-05-05 10:46 | 53.27610 | -2.42573 | 2026 ft | 143 kts | 48° |
| 2026-05-05 10:46 | 53.28234 | -2.41291 | 1823 ft | 142 kts | 47° |
| 2026-05-05 10:47 | 53.28856 | -2.40013 | 1631 ft | 141 kts | 48° |
| 2026-05-05 10:47 | 53.29477 | -2.38736 | 1432 ft | 141 kts | 48° |
| 2026-05-05 10:47 | 53.30095 | -2.37464 | 1231 ft | 141 kts | 46° |
| 2026-05-05 10:47 | 53.30705 | -2.36192 | 1026 ft | 141 kts | 49° |
| 2026-05-05 10:48 | 53.31319 | -2.34934 | 805 ft | 139 kts | 47° |
| 2026-05-05 10:48 | 53.31929 | -2.33660 | 647 ft | 141 kts | 48° |
| 2026-05-05 10:48 | 53.32545 | -2.32372 | 453 ft | 142 kts | 46° |
| 2026-05-05 10:48 | 53.33173 | -2.31103 | 257 ft | 141 kts | 46° |
| 2026-05-05 10:49 | 53.33758 | -2.29898 | 210 ft | 121 kts | 49° |
| 2026-05-05 10:49 | 53.34193 | -2.29007 | 219 ft | 74 kts | 51° |
| 2026-05-05 10:49 | 53.34414 | -2.28598 | 221 ft | 25 kts | 28° |
| 2026-05-05 10:49 | 53.34559 | -2.28502 | 226 ft | 23 kts | 20° |
| 2026-05-05 10:50 | 53.34663 | -2.28435 | 227 ft | 11 kts | 21° |
| 2026-05-05 10:50 | 53.34718 | -2.28383 | 229 ft | 8 kts | 40° |
| 2026-05-05 10:50 | 53.34747 | -2.28327 | 229 ft | 5 kts | 51° |
| 2026-05-05 10:50 | 53.34767 | -2.28286 | 230 ft | 5 kts | 51° |
| 2026-05-05 10:51 | 53.34804 | -2.28208 | 231 ft | 12 kts | 51° |
| 2026-05-05 10:51 | 53.34866 | -2.28081 | 233 ft | 14 kts | 51° |
| 2026-05-05 10:51 | 53.34924 | -2.27972 | 235 ft | 10 kts | 29° |
| 2026-05-05 10:51 | 53.34984 | -2.28002 | 238 ft | 10 kts | 322° |
| 2026-05-05 10:52 | 53.35056 | -2.28100 | 231 ft | 16 kts | 321° |
| 2026-05-05 10:52 | 53.35150 | -2.28205 | 233 ft | 16 kts | 348° |
| 2026-05-05 10:52 | 53.35255 | -2.28190 | 236 ft | 12 kts | 5° |
| 2026-05-05 10:52 | 53.35318 | -2.28146 | 239 ft | 9 kts | 44° |
| 2026-05-05 10:53 | 53.35360 | -2.28077 | 241 ft | 11 kts | 44° |
| 2026-05-05 10:53 | 53.35433 | -2.27960 | 245 ft | 18 kts | 44° |
| 2026-05-05 10:53 | 53.35522 | -2.27815 | 249 ft | 17 kts | 44° |
| 2026-05-05 10:53 | 53.35606 | -2.27679 | 253 ft | 16 kts | 45° |
| 2026-05-05 10:54 | 53.35668 | -2.27611 | 256 ft | 8 kts | 2° |
| 2026-05-05 10:54 | 53.35726 | -2.27640 | 255 ft | 11 kts | 339° |
| 2026-05-05 10:54 | 53.35807 | -2.27660 | 255 ft | 13 kts | 6° |
| 2026-05-05 10:54 | 53.35847 | -2.27654 | 255 ft | 0 kts | 5° |
| 2026-05-05 10:55 | 53.35861 | -2.27651 | 255 ft | 4 kts | 6° |
| 2026-05-05 10:55 | 53.35900 | -2.27645 | 255 ft | 7 kts | 6° |
| 2026-05-05 10:55 | 53.35945 | -2.27637 | 255 ft | 6 kts | 6° |
| 2026-05-05 10:56 | 53.35984 | -2.27604 | 255 ft | 7 kts | 71° |
| 2026-05-05 10:56 | 53.35980 | -2.27533 | 255 ft | 2 kts | 96° |
| 2026-05-05 10:56 | 53.35980 | -2.27522 | 255 ft | 2 kts | 95° |
| 2026-05-05 10:56 | 53.35980 | -2.27520 | 255 ft | 0 kts | 95° |